Time;durP1;ratioP1;P1;durP2;ratioP2;P2;SDS_P1;SDS_P2;PMS_P1;PMS_P2;Temp;Humidity;BMP_temperature;BMP_pressure;BME280_temperature;BME280_humidity;BME280_pressure;Samples;Min_cycle;Max_cycle;Signal;HPM_P1;HPM_P2
2022/03/04 00:00:38;;;;;;;3.45;1.55;;;0.40;99.90;;;;;;5005387;28;20088;-69
2022/03/04 00:03:05;;;;;;;8.10;2.50;;;0.40;99.90;;;;;;4986157;28;20054;-64
2022/03/04 00:05:32;;;;;;;8.43;1.40;;;0.40;99.90;;;;;;4984160;28;20404;-64
2022/03/04 00:07:59;;;;;;;5.63;0.73;;;0.40;99.90;;;;;;4981097;28;20089;-64
2022/03/04 00:10:26;;;;;;;3.95;1.30;;;0.40;99.90;;;;;;4985723;28;20061;-66
2022/03/04 00:12:54;;;;;;;5.90;1.92;;;0.30;99.90;;;;;;4984181;28;20156;-67
2022/03/04 00:15:21;;;;;;;8.13;1.38;;;0.30;99.90;;;;;;4984592;28;20050;-64
2022/03/04 00:17:48;;;;;;;4.55;0.75;;;0.30;99.90;;;;;;4982964;28;20125;-64
2022/03/04 00:20:15;;;;;;;3.75;1.23;;;0.30;99.90;;;;;;4985912;28;20073;-63
2022/03/04 00:22:43;;;;;;;5.30;1.58;;;0.30;99.90;;;;;;4984587;28;20438;-65
2022/03/04 00:25:10;;;;;;;3.83;0.82;;;0.30;99.90;;;;;;4983412;28;20046;-64
2022/03/04 00:27:38;;;;;;;6.57;2.25;;;0.30;99.90;;;;;;5034217;28;20054;-63
2022/03/04 00:30:06;;;;;;;5.03;1.30;;;0.20;99.90;;;;;;5004758;28;20038;-63
2022/03/04 00:32:35;;;;;;;12.30;2.00;;;0.20;99.90;;;;;;5003255;28;20139;-67
2022/03/04 00:35:04;;;;;;;3.28;0.80;;;0.20;99.90;;;;;;5004899;28;20377;-65
2022/03/04 00:37:31;;;;;;;7.22;0.90;;;0.20;99.90;;;;;;5001292;28;20102;-64
2022/03/04 00:39:58;;;;;;;10.20;2.03;;;0.10;99.90;;;;;;5002902;28;20050;-63
2022/03/04 00:42:27;;;;;;;8.70;1.65;;;0.10;99.90;;;;;;5004069;28;20180;-64
2022/03/04 00:44:54;;;;;;;10.35;1.98;;;0.20;99.90;;;;;;5002750;28;20081;-63
2022/03/04 00:47:21;;;;;;;13.05;2.00;;;0.10;99.90;;;;;;5001650;28;20128;-66
2022/03/04 00:49:48;;;;;;;3.55;0.88;;;0.10;99.90;;;;;;4997834;28;20410;-64
2022/03/04 00:52:15;;;;;;;10.25;1.00;;;0.10;99.90;;;;;;4985652;28;20042;-64
2022/03/04 00:54:42;;;;;;;6.03;1.38;;;0.10;99.90;;;;;;4981668;28;20053;-65
2022/03/04 00:57:09;;;;;;;1.63;0.65;;;0.10;99.90;;;;;;4982349;28;20141;-68
2022/03/04 00:59:36;;;;;;;11.32;2.63;;;0.00;99.90;;;;;;4983100;28;20078;-64
2022/03/04 01:02:04;;;;;;;6.30;0.90;;;0.00;99.90;;;;;;4985806;28;20077;-64
2022/03/04 01:04:31;;;;;;;6.63;1.80;;;0.00;99.90;;;;;;4982873;28;20043;-65
2022/03/04 01:06:58;;;;;;;3.53;1.02;;;0.00;99.90;;;;;;4984369;28;20058;-67
2022/03/04 01:09:25;;;;;;;3.08;0.77;;;0.00;99.90;;;;;;4982192;28;20065;-63
2022/03/04 01:11:53;;;;;;;4.68;1.48;;;0.00;99.90;;;;;;4983355;28;20077;-65
2022/03/04 01:14:20;;;;;;;4.90;1.17;;;0.00;99.90;;;;;;4982957;28;20482;-64
2022/03/04 01:16:47;;;;;;;8.00;1.50;;;0.00;99.90;;;;;;4985939;28;20125;-68
2022/03/04 01:19:14;;;;;;;4.78;1.58;;;0.00;99.90;;;;;;4981521;28;20069;-69
2022/03/04 01:21:41;;;;;;;8.90;1.40;;;0.00;99.90;;;;;;4989237;28;20138;-65
2022/03/04 01:24:09;;;;;;;6.63;1.05;;;0.00;99.90;;;;;;5004322;28;20061;-70
2022/03/04 01:26:36;;;;;;;2.72;0.85;;;0.00;99.90;;;;;;4992290;28;20054;-63
2022/03/04 01:29:03;;;;;;;9.73;2.08;;;0.00;99.90;;;;;;4998218;28;20133;-64
2022/03/04 01:31:30;;;;;;;8.32;1.20;;;0.00;99.90;;;;;;5003156;28;20049;-66
2022/03/04 01:33:57;;;;;;;9.27;1.33;;;0.00;99.90;;;;;;5001256;28;20046;-63
2022/03/04 01:36:24;;;;;;;4.15;1.23;;;0.00;99.90;;;;;;5002878;28;20058;-64
2022/03/04 01:38:51;;;;;;;8.65;1.73;;;0.00;99.90;;;;;;5004670;28;20053;-62
2022/03/04 01:41:18;;;;;;;4.68;0.90;;;0.00;99.90;;;;;;4997933;28;20108;-66
2022/03/04 01:43:45;;;;;;;4.63;1.83;;;0.00;99.90;;;;;;4864014;28;20120;-64
2022/03/04 01:46:17;;;;;;;7.40;1.43;;;0.00;99.90;;;;;;339792;28;10023387;-67
2022/03/04 01:48:46;;;;;;;3.97;1.05;;;0.00;99.90;;;;;;4996565;28;20053;-67
2022/03/04 01:51:14;;;;;;;3.85;1.23;;;0.00;99.90;;;;;;5000809;28;20042;-64
2022/03/04 01:53:42;;;;;;;3.85;1.25;;;0.00;99.90;;;;;;5004266;28;20049;-67
2022/03/04 01:56:08;;;;;;;11.80;1.42;;;0.00;99.90;;;;;;5000717;28;20132;-71
2022/03/04 01:58:36;;;;;;;2.97;1.02;;;0.00;99.90;;;;;;5002047;28;21095;-68
2022/03/04 02:01:05;;;;;;;5.93;1.83;;;0.00;99.90;;;;;;5003145;28;20074;-65
2022/03/04 02:03:33;;;;;;;5.55;1.27;;;0.00;99.90;;;;;;5001045;28;20136;-70
2022/03/04 02:06:00;;;;;;;5.40;3.03;;;0.00;99.90;;;;;;4996323;28;20058;-67
2022/03/04 02:08:27;;;;;;;4.25;1.60;;;0.00;99.90;;;;;;4990504;28;20802;-62
2022/03/04 02:10:54;;;;;;;7.78;1.30;;;0.10;99.90;;;;;;5002593;28;20050;-71
2022/03/04 02:13:21;;;;;;;4.78;0.88;;;0.00;99.90;;;;;;4996748;28;20061;-67
2022/03/04 02:15:48;;;;;;;3.22;0.80;;;0.00;99.90;;;;;;5029908;28;20078;-67
2022/03/04 02:18:17;;;;;;;8.43;1.75;;;0.00;99.90;;;;;;4982246;28;20073;-72
2022/03/04 02:20:48;;;;;;;4.43;1.13;;;0.00;99.90;;;;;;4983994;28;20058;-67
2022/03/04 02:23:15;;;;;;;;;;;0.10;99.90;;;;;;4980844;28;20058;-69
2022/03/04 02:25:52;;;;;;;7.13;1.20;;;0.10;99.90;;;;;;4982903;28;20016;-67
2022/03/04 02:28:20;;;;;;;4.65;1.13;;;0.10;99.90;;;;;;4982109;28;20497;-65
2022/03/04 02:30:48;;;;;;;7.65;1.67;;;0.20;99.90;;;;;;4994327;28;20058;-67
2022/03/04 02:33:15;;;;;;;5.88;1.08;;;0.20;99.90;;;;;;4999995;28;20449;-62
2022/03/04 02:35:42;;;;;;;4.03;1.45;;;0.20;99.90;;;;;;5002563;28;20077;-70
2022/03/04 02:38:09;;;;;;;2.75;0.80;;;0.20;99.90;;;;;;5002913;28;20054;-72
2022/03/04 02:40:37;;;;;;;7.53;1.10;;;0.20;99.90;;;;;;5001292;28;20100;-65
2022/03/04 02:43:04;;;;;;;2.30;0.60;;;0.30;99.90;;;;;;5001178;28;20100;-65
2022/03/04 02:45:32;;;;;;;4.43;1.05;;;0.30;99.90;;;;;;4998488;28;20555;-67
2022/03/04 02:47:59;;;;;;;1.33;0.70;;;0.30;99.90;;;;;;5002569;28;20816;-62
2022/03/04 02:50:26;;;;;;;4.68;2.03;;;0.30;99.90;;;;;;5002029;28;20046;-66
2022/03/04 02:52:54;;;;;;;6.47;1.08;;;0.30;99.90;;;;;;4988607;28;20074;-68
2022/03/04 02:55:21;;;;;;;5.63;0.60;;;0.30;99.90;;;;;;4997768;28;20145;-63
2022/03/04 02:57:48;;;;;;;5.22;1.05;;;0.30;99.90;;;;;;4986230;28;20046;-63
2022/03/04 03:00:16;;;;;;;3.83;0.63;;;0.30;99.90;;;;;;5002220;28;20865;-69
2022/03/04 03:02:44;;;;;;;2.78;0.93;;;0.30;99.90;;;;;;4989245;28;20061;-65
2022/03/04 03:05:12;;;;;;;4.80;0.70;;;0.30;99.90;;;;;;4997605;28;20065;-66
2022/03/04 03:07:40;;;;;;;6.68;2.00;;;0.30;99.90;;;;;;5030890;28;20061;-68
2022/03/04 03:10:08;;;;;;;2.85;1.20;;;0.30;99.90;;;;;;5004057;28;20050;-65
2022/03/04 03:12:35;;;;;;;4.68;1.27;;;0.30;99.90;;;;;;5000147;28;20152;-64
2022/03/04 03:15:03;;;;;;;5.38;1.02;;;0.30;99.90;;;;;;5000582;28;20103;-69
2022/03/04 03:17:30;;;;;;;2.10;1.08;;;0.40;99.90;;;;;;4996992;28;20120;-62
2022/03/04 03:19:57;;;;;;;4.80;0.80;;;0.40;99.90;;;;;;5002477;28;20060;-63
2022/03/04 03:22:24;;;;;;;2.85;1.00;;;0.40;99.90;;;;;;5001605;28;20054;-71
2022/03/04 03:24:51;;;;;;;4.18;1.10;;;0.40;99.90;;;;;;5003692;28;20077;-63
2022/03/04 03:27:19;;;;;;;5.40;1.65;;;0.30;99.90;;;;;;4999497;28;20134;-66
2022/03/04 03:29:46;;;;;;;2.08;0.70;;;0.30;99.90;;;;;;5005051;28;20458;-66
2022/03/04 03:32:13;;;;;;;2.97;0.65;;;0.30;99.90;;;;;;5001719;28;20057;-63
2022/03/04 03:34:40;;;;;;;9.07;1.52;;;0.30;99.90;;;;;;5006831;28;20092;-66
2022/03/04 03:37:09;;;;;;;3.97;1.02;;;0.30;99.90;;;;;;4986282;28;20096;-66
2022/03/04 03:39:37;;;;;;;4.05;1.02;;;0.30;99.90;;;;;;5005341;28;20042;-68
2022/03/04 03:42:05;;;;;;;6.13;1.20;;;0.30;99.90;;;;;;5004946;28;20478;-62
2022/03/04 03:44:32;;;;;;;2.55;0.70;;;0.20;99.90;;;;;;3479194;28;10024271;-67
2022/03/04 03:46:59;;;;;;;4.00;0.85;;;0.30;99.90;;;;;;2404935;28;10001972;-66
2022/03/04 03:49:26;;;;;;;4.18;1.25;;;0.20;99.90;;;;;;4983534;28;20150;-66
2022/03/04 03:51:53;;;;;;;1.85;0.88;;;0.20;99.90;;;;;;4984209;28;20073;-68
2022/03/04 03:54:20;;;;;;;6.40;1.35;;;0.20;99.90;;;;;;4986487;28;20165;-63
2022/03/04 03:56:47;;;;;;;4.13;0.98;;;0.20;99.90;;;;;;4984792;28;20137;-63
2022/03/04 03:59:14;;;;;;;6.18;1.20;;;0.10;99.90;;;;;;4983302;28;20074;-65
2022/03/04 04:01:41;;;;;;;4.05;0.88;;;0.10;99.90;;;;;;4986733;28;20619;-69
2022/03/04 04:04:11;;;;;;;4.28;0.60;;;0.10;99.90;;;;;;4984859;28;20226;-69
2022/03/04 04:06:42;;;;;;;1.85;0.63;;;0.00;99.90;;;;;;4985503;28;20089;-63
2022/03/04 04:09:09;;;;;;;;;;;0.00;99.90;;;;;;4979312;28;20054;-64
2022/03/04 04:11:37;;;;;;;3.95;0.50;;;0.00;99.90;;;;;;4985039;28;19953;-62
2022/03/04 04:14:06;;;;;;;5.43;0.82;;;0.00;99.90;;;;;;4984533;28;20128;-62
2022/03/04 04:16:34;;;;;;;3.70;1.30;;;-0.10;99.90;;;;;;4986119;28;20077;-65
2022/03/04 04:19:01;;;;;;;3.00;0.77;;;-0.10;99.90;;;;;;4983762;28;20132;-62
2022/03/04 04:21:28;;;;;;;5.85;2.53;;;-0.20;99.90;;;;;;4982284;28;20100;-67
2022/03/04 04:23:56;;;;;;;3.42;1.20;;;-0.10;99.90;;;;;;4986070;28;20046;-67
2022/03/04 04:26:23;;;;;;;4.78;0.88;;;-0.20;99.90;;;;;;4984125;28;20097;-62
2022/03/04 04:28:51;;;;;;;6.22;1.25;;;-0.20;99.90;;;;;;4984391;28;20142;-62
2022/03/04 04:31:18;;;;;;;2.42;0.60;;;-0.30;99.90;;;;;;4980948;28;20057;-63
2022/03/04 04:33:45;;;;;;;3.67;0.77;;;-0.30;99.90;;;;;;4991457;28;20458;-64
2022/03/04 04:36:12;;;;;;;5.78;1.38;;;-0.40;99.90;;;;;;5002580;28;20054;-65
2022/03/04 04:38:39;;;;;;;1.40;0.52;;;-0.40;99.90;;;;;;5005419;28;20073;-66
2022/03/04 04:41:06;;;;;;;2.72;0.60;;;-0.40;99.90;;;;;;5005125;28;20133;-64
2022/03/04 04:43:34;;;;;;;10.18;0.93;;;-0.40;99.90;;;;;;5002254;28;20069;-66
2022/03/04 04:46:01;;;;;;;5.90;1.85;;;-0.40;99.90;;;;;;5003077;28;20050;-65
2022/03/04 04:48:28;;;;;;;2.90;1.30;;;-0.40;99.90;;;;;;5002289;28;20092;-70
2022/03/04 04:50:59;;;;;;;2.92;0.88;;;-0.50;99.90;;;;;;5004332;28;20915;-62
2022/03/04 04:53:27;;;;;;;1.47;0.70;;;-0.50;99.90;;;;;;4985833;28;20128;-63
2022/03/04 04:55:54;;;;;;;3.35;0.95;;;-0.50;99.90;;;;;;5002842;28;20116;-69
2022/03/04 04:58:22;;;;;;;2.78;0.75;;;-0.60;99.90;;;;;;5003024;28;20120;-63
2022/03/04 05:00:53;;;;;;;2.58;1.10;;;-0.70;99.90;;;;;;5004668;28;20615;-63
2022/03/04 05:03:21;;;;;;;3.10;1.58;;;-0.80;99.90;;;;;;4983514;28;20050;-64
2022/03/04 05:05:49;;;;;;;1.25;0.60;;;-0.90;99.90;;;;;;5004148;28;20119;-62
2022/03/04 05:08:17;;;;;;;4.03;1.05;;;-0.90;99.90;;;;;;4993559;28;20081;-63
2022/03/04 05:10:44;;;;;;;8.90;1.55;;;-1.00;99.90;;;;;;4984897;28;20054;-67
2022/03/04 05:13:11;;;;;;;6.38;1.00;;;-1.00;99.90;;;;;;4982307;28;20479;-69
2022/03/04 05:15:39;;;;;;;8.18;2.63;;;-1.00;99.90;;;;;;4985089;28;20461;-63
2022/03/04 05:18:08;;;;;;;4.35;0.95;;;-1.00;99.90;;;;;;4982725;28;20046;-68
2022/03/04 05:20:35;;;;;;;6.05;1.52;;;-1.10;99.90;;;;;;4981813;28;20104;-66
2022/03/04 05:23:02;;;;;;;3.05;1.85;;;-1.10;99.90;;;;;;4980831;28;20474;-69
2022/03/04 05:25:30;;;;;;;3.85;0.80;;;-1.00;99.90;;;;;;4982693;28;20089;-66
2022/03/04 05:27:57;;;;;;;3.40;0.93;;;-1.00;99.90;;;;;;4983574;28;20141;-64
2022/03/04 05:30:24;;;;;;;7.82;1.30;;;-1.00;99.90;;;;;;4987790;28;20128;-71
2022/03/04 05:32:51;;;;;;;1.25;1.08;;;-1.10;99.90;;;;;;4983187;28;20054;-63
2022/03/04 05:35:18;;;;;;;2.03;0.82;;;-1.10;99.90;;;;;;4984220;28;20058;-67
2022/03/04 05:37:45;;;;;;;5.63;0.93;;;-1.10;99.90;;;;;;4981355;28;20050;-66
2022/03/04 05:40:12;;;;;;;3.53;0.68;;;-1.10;99.90;;;;;;4983763;28;20096;-67
2022/03/04 05:42:39;;;;;;;3.65;0.80;;;-1.00;99.90;;;;;;4942892;28;20849;-63
2022/03/04 05:45:25;;;;;;;1.25;0.63;;;-1.10;99.90;;;;;;2285132;28;10023913;-64
2022/03/04 05:47:52;;;;;;;7.80;1.00;;;-1.10;99.90;;;;;;4292424;28;10001074;-62
2022/03/04 05:50:19;;;;;;;6.20;0.80;;;-1.10;99.90;;;;;;4982095;28;20088;-71
2022/03/04 05:52:46;;;;;;;2.50;0.95;;;-1.20;99.90;;;;;;4979329;28;20039;-65
2022/03/04 05:55:12;;;;;;;4.85;0.93;;;-1.20;99.90;;;;;;4981940;28;20145;-64
2022/03/04 05:57:39;;;;;;;5.65;0.95;;;-1.20;99.90;;;;;;4983861;28;20477;-64
2022/03/04 06:00:07;;;;;;;1.60;1.33;;;-1.20;99.90;;;;;;4982648;28;20157;-65
2022/03/04 06:02:34;;;;;;;4.82;1.35;;;-1.20;99.90;;;;;;4983726;28;20153;-66
2022/03/04 06:05:01;;;;;;;4.45;0.90;;;-1.20;99.90;;;;;;5014611;28;20053;-65
2022/03/04 06:07:33;;;;;;;11.35;2.97;;;-1.20;99.90;;;;;;4979436;28;20051;-63
2022/03/04 06:10:02;;;;;;;10.45;4.75;;;-1.20;99.90;;;;;;4983285;28;20133;-68
2022/03/04 06:12:28;;;;;;;13.57;5.40;;;-1.20;99.90;;;;;;4980905;28;20089;-64
2022/03/04 06:14:55;;;;;;;15.32;5.07;;;-1.20;99.90;;;;;;4981151;28;20160;-63
2022/03/04 06:17:22;;;;;;;7.72;2.80;;;-1.20;99.90;;;;;;4980330;28;20066;-67
2022/03/04 06:19:49;;;;;;;6.47;2.42;;;-1.20;99.90;;;;;;4982858;28;20074;-65
2022/03/04 06:22:18;;;;;;;8.98;2.85;;;-1.20;99.90;;;;;;4977231;28;20420;-64
2022/03/04 06:24:45;;;;;;;4.32;1.25;;;-1.20;99.90;;;;;;4975878;28;20065;-63
2022/03/04 06:27:12;;;;;;;8.57;1.13;;;-1.20;99.90;;;;;;4979220;28;20093;-68
2022/03/04 06:29:38;;;;;;;6.25;1.52;;;-1.20;99.90;;;;;;4981320;28;20076;-65
2022/03/04 06:32:06;;;;;;;5.72;1.63;;;-1.20;99.90;;;;;;4981469;28;20054;-65
2022/03/04 06:34:34;;;;;;;6.78;1.50;;;-1.20;99.90;;;;;;4982962;28;20101;-66
2022/03/04 06:37:02;;;;;;;5.75;1.58;;;-1.20;99.90;;;;;;4981526;28;20050;-64
2022/03/04 06:39:29;;;;;;;3.85;1.10;;;-1.20;99.90;;;;;;4980360;28;22280;-63
2022/03/04 06:41:56;;;;;;;6.20;1.95;;;-1.20;99.90;;;;;;4988864;28;20049;-65
2022/03/04 06:44:25;;;;;;;6.88;1.48;;;-1.10;99.90;;;;;;5012519;28;20054;-66
2022/03/04 06:46:52;;;;;;;12.07;1.15;;;-1.00;99.90;;;;;;4984016;28;20401;-66
2022/03/04 06:49:19;;;;;;;8.27;0.85;;;-1.00;99.90;;;;;;4979611;28;20084;-67
2022/03/04 06:51:46;;;;;;;3.35;0.75;;;-0.90;99.90;;;;;;4981439;28;20124;-66
2022/03/04 06:54:13;;;;;;;2.83;0.65;;;-0.90;99.90;;;;;;4977024;28;20080;-65
2022/03/04 06:56:40;;;;;;;5.63;1.13;;;-0.80;99.90;;;;;;4979164;28;20180;-67
2022/03/04 06:59:07;;;;;;;7.80;1.92;;;-0.70;99.90;;;;;;4979787;28;20073;-63
2022/03/04 07:01:34;;;;;;;9.82;1.67;;;-0.60;99.90;;;;;;4981299;28;20188;-69
2022/03/04 07:04:01;;;;;;;1.55;1.08;;;-0.60;99.90;;;;;;4979492;28;20738;-69
2022/03/04 07:06:28;;;;;;;1.75;0.50;;;-0.50;99.90;;;;;;4979523;28;20114;-68
2022/03/04 07:08:55;;;;;;;5.05;0.85;;;-0.40;99.90;;;;;;4979333;28;20088;-65
2022/03/04 07:11:27;;;;;;;6.25;0.75;;;-0.30;99.90;;;;;;4982179;28;20053;-64
2022/03/04 07:13:54;;;;;;;7.55;1.10;;;-0.30;99.90;;;;;;4982747;28;20650;-65
2022/03/04 07:16:21;;;;;;;7.63;1.73;;;-0.20;99.90;;;;;;4983711;28;20488;-63
2022/03/04 07:18:48;;;;;;;2.50;0.93;;;-0.20;99.90;;;;;;4978299;28;20050;-71
2022/03/04 07:21:15;;;;;;;1.73;0.70;;;-0.10;99.90;;;;;;4982986;28;20481;-70
2022/03/04 07:23:42;;;;;;;1.60;0.52;;;-0.10;99.90;;;;;;4981921;28;20568;-66
2022/03/04 07:26:10;;;;;;;3.45;0.70;;;0.00;99.90;;;;;;4980773;28;20114;-63
2022/03/04 07:28:37;;;;;;;4.13;0.90;;;0.10;99.90;;;;;;4977840;28;20086;-68
2022/03/04 07:31:04;;;;;;;4.88;0.60;;;0.20;99.90;;;;;;4982789;28;20052;-66
2022/03/04 07:33:33;;;;;;;6.78;0.68;;;0.20;99.90;;;;;;4989770;28;20058;-71
2022/03/04 07:36:01;;;;;;;3.30;0.80;;;0.30;99.90;;;;;;4988952;28;20054;-63
2022/03/04 07:38:28;;;;;;;14.20;1.13;;;0.40;99.90;;;;;;4977223;28;20047;-66
2022/03/04 07:40:58;;;;;;;8.43;1.38;;;0.40;99.90;;;;;;4982463;28;20054;-64
2022/03/04 07:43:25;;;;;;;9.50;1.60;;;0.50;99.90;;;;;;4898637;28;21071;-64
2022/03/04 07:46:10;;;;;;;3.55;0.57;;;0.60;99.90;;;;;;1905451;28;10023507;-64
2022/03/04 07:48:37;;;;;;;6.43;1.50;;;0.60;99.90;;;;;;3960997;28;10001164;-70
2022/03/04 07:51:05;;;;;;;2.58;1.10;;;0.70;99.90;;;;;;5002148;28;20133;-69
2022/03/04 07:53:32;;;;;;;3.42;0.77;;;0.70;99.90;;;;;;4997964;28;20050;-69
2022/03/04 07:55:58;;;;;;;3.53;0.93;;;0.80;99.90;;;;;;5001480;28;20132;-64
2022/03/04 07:58:25;;;;;;;9.18;1.05;;;0.80;99.90;;;;;;4997623;28;20082;-64
2022/03/04 08:00:52;;;;;;;4.57;0.70;;;0.90;99.90;;;;;;4999600;28;20802;-63
2022/03/04 08:03:39;;;;;;;5.30;0.50;;;1.00;99.90;;;;;;4997797;28;20057;-67
2022/03/04 08:06:06;;;;;;;1.48;0.82;;;1.00;99.90;;;;;;4985255;28;20144;-69
2022/03/04 08:08:34;;;;;;;2.67;0.60;;;1.10;99.90;;;;;;4997833;28;20054;-68
2022/03/04 08:11:02;;;;;;;4.65;0.47;;;1.10;99.90;;;;;;4995088;28;20042;-68
2022/03/04 08:13:29;;;;;;;13.73;1.85;;;1.10;99.90;;;;;;4988204;28;20176;-68
2022/03/04 08:15:57;;;;;;;8.95;1.02;;;1.20;99.90;;;;;;4988500;28;20378;-64
2022/03/04 08:18:25;;;;;;;8.05;0.73;;;1.20;99.90;;;;;;4979877;28;20046;-67
2022/03/04 08:20:52;;;;;;;3.03;0.57;;;1.30;99.90;;;;;;4984960;28;20457;-67
2022/03/04 08:23:19;;;;;;;9.32;1.75;;;1.30;99.90;;;;;;4980938;28;20135;-65
2022/03/04 08:25:46;;;;;;;6.20;0.52;;;1.40;99.90;;;;;;4982430;28;20516;-65
2022/03/04 08:28:13;;;;;;;4.10;1.25;;;1.40;99.90;;;;;;4981631;28;20054;-64
2022/03/04 08:30:40;;;;;;;11.00;1.33;;;1.50;99.90;;;;;;4982921;28;20152;-65
2022/03/04 08:33:07;;;;;;;7.28;1.33;;;1.50;99.90;;;;;;4986751;28;20058;-66
2022/03/04 08:35:35;;;;;;;4.68;1.17;;;1.60;99.90;;;;;;4993558;28;20050;-71
2022/03/04 08:38:02;;;;;;;4.47;0.85;;;1.60;99.90;;;;;;4994939;28;20417;-70
2022/03/04 08:40:29;;;;;;;10.23;1.95;;;1.60;99.90;;;;;;4985993;28;20109;-64
2022/03/04 08:42:56;;;;;;;11.02;1.23;;;1.70;99.90;;;;;;4987961;28;20069;-70
2022/03/04 08:45:23;;;;;;;8.55;0.60;;;1.80;99.90;;;;;;5003574;28;20131;-69
2022/03/04 08:47:50;;;;;;;5.18;1.50;;;1.90;99.90;;;;;;5001856;28;20168;-67
2022/03/04 08:50:19;;;;;;;4.75;0.88;;;1.90;99.90;;;;;;5001765;28;20089;-67
2022/03/04 08:52:48;;;;;;;10.75;0.73;;;1.90;99.90;;;;;;4985872;28;20147;-67
2022/03/04 08:55:15;;;;;;;14.27;2.05;;;1.90;99.90;;;;;;4996274;28;20100;-64
2022/03/04 08:57:44;;;;;;;10.57;2.33;;;2.00;99.90;;;;;;4994545;28;20087;-67
2022/03/04 09:00:12;;;;;;;8.07;1.00;;;2.00;99.90;;;;;;5002149;28;20143;-65
2022/03/04 09:02:39;;;;;;;3.15;0.90;;;2.00;99.90;;;;;;4999312;28;20073;-63
2022/03/04 09:05:06;;;;;;;4.15;1.13;;;2.10;99.90;;;;;;4984450;28;20056;-65
2022/03/04 09:07:34;;;;;;;6.38;2.83;;;2.10;99.90;;;;;;5004925;28;20610;-71
2022/03/04 09:10:03;;;;;;;8.77;1.45;;;2.10;99.90;;;;;;5002848;28;20120;-66
2022/03/04 09:12:30;;;;;;;3.75;0.95;;;2.20;99.90;;;;;;5002442;28;20084;-68
2022/03/04 09:14:58;;;;;;;9.52;0.85;;;2.20;99.90;;;;;;4997513;28;20050;-64
2022/03/04 09:17:26;;;;;;;5.45;0.95;;;2.20;99.90;;;;;;4990134;28;20053;-70
2022/03/04 09:19:53;;;;;;;7.28;0.93;;;2.20;99.90;;;;;;4990217;28;20808;-66
2022/03/04 09:22:24;;;;;;;6.63;1.00;;;2.30;99.90;;;;;;4982028;28;20050;-68
2022/03/04 09:24:51;;;;;;;18.63;2.85;;;2.40;99.90;;;;;;4983514;28;20222;-70
2022/03/04 09:27:18;;;;;;;8.43;0.90;;;2.40;99.90;;;;;;4984032;28;20842;-65
2022/03/04 09:29:45;;;;;;;7.57;1.23;;;2.40;99.90;;;;;;4983367;28;20066;-68
2022/03/04 09:32:13;;;;;;;8.52;0.77;;;2.50;99.90;;;;;;4995962;28;20494;-72
2022/03/04 09:34:40;;;;;;;16.55;0.93;;;2.40;99.90;;;;;;4999858;28;20141;-66
2022/03/04 09:37:07;;;;;;;8.48;0.65;;;2.50;99.90;;;;;;5001242;28;20886;-66
2022/03/04 09:39:34;;;;;;;7.95;1.27;;;2.40;99.90;;;;;;5003785;28;20077;-71
2022/03/04 09:42:01;;;;;;;10.40;1.05;;;2.50;99.90;;;;;;5003460;28;20074;-63
2022/03/04 09:44:40;;;;;;;13.20;1.42;;;2.50;99.90;;;;;;3455786;28;10022140;-65
2022/03/04 09:47:09;;;;;;;8.05;1.70;;;2.50;99.90;;;;;;2748246;28;10001934;-68
2022/03/04 09:49:37;;;;;;;8.00;1.38;;;2.60;99.90;;;;;;4978716;28;20046;-66
2022/03/04 09:52:05;;;;;;;3.95;2.38;;;2.70;99.90;;;;;;4983654;28;20105;-67
2022/03/04 09:54:33;;;;;;;5.95;1.30;;;2.80;99.90;;;;;;4980110;28;20050;-64
2022/03/04 09:57:00;;;;;;;4.13;0.70;;;2.80;99.90;;;;;;4983431;28;20054;-64
2022/03/04 09:59:27;;;;;;;8.07;1.17;;;2.80;99.90;;;;;;4985530;28;20078;-69
2022/03/04 10:01:58;;;;;;;4.78;0.77;;;2.80;99.90;;;;;;4982683;28;20058;-63
2022/03/04 10:04:26;;;;;;;7.72;1.00;;;2.90;99.90;;;;;;4979644;28;20168;-65
2022/03/04 10:06:53;;;;;;;7.57;1.65;;;2.90;99.90;;;;;;4981887;28;20134;-69
2022/03/04 10:09:57;;;;;;;5.80;2.38;;;3.00;99.90;;;;;;4982433;28;20055;-74
2022/03/04 10:12:24;;;;;;;3.22;1.02;;;3.00;99.90;;;;;;4973944;28;20034;-66
2022/03/04 10:15:06;;;;;;;1.80;0.68;;;3.00;99.90;;;;;;4980423;28;20121;-65
2022/03/04 10:17:36;;;;;;;9.30;1.30;;;3.00;99.90;;;;;;4980658;28;20069;-68
2022/03/04 10:20:14;;;;;;;1.80;0.70;;;3.00;99.90;;;;;;4982112;28;20157;-65
2022/03/04 10:22:45;;;;;;;5.78;1.48;;;3.10;99.90;;;;;;4978943;28;20295;-71
2022/03/04 10:25:21;;;;;;;1.67;0.80;;;3.20;99.90;;;;;;4982108;28;20054;-70
2022/03/04 10:27:48;;;;;;;5.57;1.08;;;3.30;99.90;;;;;;4980104;28;20177;-71
2022/03/04 10:30:16;;;;;;;7.32;1.13;;;3.30;99.90;;;;;;4982785;28;20062;-63
2022/03/04 10:32:44;;;;;;;8.00;0.73;;;3.30;99.90;;;;;;4978844;28;20050;-68
2022/03/04 10:35:14;;;;;;;4.13;0.77;;;3.30;99.90;;;;;;4984380;28;20042;-63
2022/03/04 10:37:50;;;;;;;10.48;2.22;;;3.30;99.90;;;;;;4978697;28;20097;-65
2022/03/04 10:40:19;;;;;;;3.72;0.55;;;3.40;99.90;;;;;;4983154;28;20061;-70
2022/03/04 10:42:52;;;;;;;13.60;1.50;;;3.30;99.90;;;;;;4976382;28;20057;-68
2022/03/04 10:45:29;;;;;;;9.55;1.13;;;3.30;99.90;;;;;;4979545;28;20078;-72
2022/03/04 10:48:18;;;;;;;3.88;1.13;;;3.40;99.90;;;;;;4979224;28;20459;-67
2022/03/04 10:50:48;;;;;;;1.58;0.85;;;3.50;99.90;;;;;;4978012;28;20055;-64
2022/03/04 10:53:34;;;;;;;3.58;0.50;;;3.60;99.90;;;;;;4980249;28;20100;-67
2022/03/04 10:56:04;;;;;;;5.47;0.82;;;3.70;99.90;;;;;;4979001;28;20053;-68
2022/03/04 10:58:38;;;;;;;3.92;0.63;;;3.80;99.90;;;;;;4978927;28;20589;-68
2022/03/04 11:01:09;;;;;;;1.38;0.30;;;4.00;99.90;;;;;;4977601;28;20467;-66
2022/03/04 11:03:41;;;;;;;1.88;0.75;;;4.00;99.90;;;;;;4980457;28;20061;-74
2022/03/04 11:06:11;;;;;;;3.83;0.38;;;4.00;99.90;;;;;;4979555;28;20046;-67
2022/03/04 11:08:38;;;;;;;4.22;0.82;;;4.00;99.90;;;;;;4976806;28;20054;-65
2022/03/04 11:11:07;;;;;;;7.72;1.80;;;3.90;99.90;;;;;;4980809;28;20038;-68
2022/03/04 11:13:35;;;;;;;5.00;1.00;;;3.90;99.90;;;;;;4981790;28;20563;-67
2022/03/04 11:16:06;;;;;;;4.87;1.33;;;3.80;99.90;;;;;;4981611;28;20078;-67
2022/03/04 11:18:33;;;;;;;8.73;2.30;;;3.80;99.90;;;;;;4978061;28;20292;-67
2022/03/04 11:21:03;;;;;;;4.03;1.30;;;3.90;99.90;;;;;;4982242;28;20124;-66
2022/03/04 11:23:33;;;;;;;4.45;1.05;;;3.80;99.90;;;;;;4980452;28;20042;-67
2022/03/04 11:26:19;;;;;;;5.65;0.43;;;3.80;99.90;;;;;;4981490;28;20054;-64
2022/03/04 11:28:52;;;;;;;10.10;1.52;;;3.90;99.90;;;;;;4978027;28;20687;-64
2022/03/04 11:31:23;;;;;;;3.90;1.13;;;3.90;99.90;;;;;;4981976;28;20062;-67
2022/03/04 11:33:54;;;;;;;1.50;0.60;;;3.90;99.90;;;;;;4979616;28;20504;-64
2022/03/04 11:36:25;;;;;;;9.15;4.22;;;3.90;99.90;;;;;;4982408;28;20053;-63
2022/03/04 11:38:53;;;;;;;5.90;1.77;;;4.00;99.90;;;;;;4999384;28;20073;-66
2022/03/04 11:41:34;;;;;;;4.53;0.98;;;4.00;99.90;;;;;;4996852;28;20141;-73
2022/03/04 11:44:24;;;;;;;2.53;0.47;;;4.00;99.90;;;;;;4130844;28;10001765;-69
2022/03/04 11:47:00;;;;;;;4.10;0.20;;;4.00;99.90;;;;;;3439235;28;10001992;-64
2022/03/04 11:49:44;;;;;;;7.32;2.45;;;4.00;99.90;;;;;;5000748;28;20045;-65
2022/03/04 11:52:19;;;;;;;13.70;1.23;;;3.90;99.90;;;;;;5000536;28;20463;-63
2022/03/04 11:54:53;;;;;;;4.03;0.95;;;3.80;99.90;;;;;;4985921;28;20152;-67
2022/03/04 11:57:33;;;;;;;13.80;0.80;;;3.90;99.90;;;;;;5000410;28;20136;-68
2022/03/04 12:00:21;;;;;;;;;;;4.00;99.90;;;;;;5006437;28;20056;-65
2022/03/04 12:02:51;;;;;;;4.53;0.50;;;4.10;99.90;;;;;;5001686;28;19940;-68
2022/03/04 12:05:19;;;;;;;5.05;0.68;;;4.20;99.90;;;;;;5006176;28;20473;-63
2022/03/04 12:08:10;;;;;;;2.78;0.60;;;4.20;99.90;;;;;;5003033;28;20049;-72
2022/03/04 12:10:48;;;;;;;6.60;0.60;;;4.30;99.90;;;;;;4985356;28;20047;-63
2022/03/04 12:13:24;;;;;;;7.43;0.93;;;4.30;99.90;;;;;;4982359;28;20145;-63
2022/03/04 12:15:51;;;;;;;1.33;0.52;;;4.20;99.90;;;;;;4985396;28;20077;-63
2022/03/04 12:18:41;;;;;;;8.23;0.90;;;4.30;99.90;;;;;;4986417;28;20160;-69
2022/03/04 12:21:26;;;;;;;1.98;0.35;;;4.30;99.90;;;;;;4991547;28;20068;-62
2022/03/04 12:24:02;;;;;;;2.25;0.80;;;4.30;99.90;;;;;;4989026;28;20050;-66
2022/03/04 12:26:45;;;;;;;4.38;1.60;;;4.30;99.90;;;;;;4985047;28;20154;-71
2022/03/04 12:29:15;;;;;;;4.65;0.47;;;4.30;99.90;;;;;;4984434;28;20090;-63
2022/03/04 12:31:44;;;;;;;4.87;0.70;;;4.40;99.90;;;;;;4988400;28;20105;-68
2022/03/04 12:34:23;;;;;;;2.78;0.50;;;4.40;99.90;;;;;;4984652;28;20296;-63
2022/03/04 12:36:54;;;;;;;4.47;1.25;;;4.50;99.90;;;;;;4983617;28;20211;-64
2022/03/04 12:39:22;;;;;;;1.13;0.45;;;4.50;99.90;;;;;;4985019;28;20416;-65
2022/03/04 12:41:55;;;;;;;4.30;0.57;;;4.50;99.90;;;;;;4984382;28;20196;-63
2022/03/04 12:44:22;;;;;;;9.70;1.02;;;4.50;99.90;;;;;;4982909;28;20070;-70
2022/03/04 12:46:49;;;;;;;1.25;0.40;;;4.40;99.90;;;;;;4982027;28;20054;-69
2022/03/04 12:49:19;;;;;;;1.90;0.57;;;4.40;99.30;;;;;;4988219;28;20157;-72
2022/03/04 12:51:46;;;;;;;4.95;1.00;;;4.50;99.90;;;;;;4980971;28;20046;-71
2022/03/04 12:54:19;;;;;;;17.27;1.23;;;4.50;99.90;;;;;;4986342;28;20334;-66
2022/03/04 12:56:54;;;;;;;5.75;0.95;;;4.50;99.90;;;;;;4981635;28;20077;-66
2022/03/04 12:59:23;;;;;;;1.98;1.02;;;4.40;99.90;;;;;;4983648;28;20270;-68
2022/03/04 13:01:51;;;;;;;4.53;0.45;;;4.40;97.80;;;;;;4982233;28;20038;-67